sensor_id;sensor_type;location;lat;lon;timestamp;P1;durP1;ratioP1;P2;durP2;ratioP2
28762;SDS011;15918;51.270;6.522;2022-08-21T00:01:24;10.57;;;5.88;;
28762;SDS011;15918;51.270;6.522;2022-08-21T00:03:52;9.95;;;6.82;;
28762;SDS011;15918;51.270;6.522;2022-08-21T00:06:18;7.45;;;6.15;;
28762;SDS011;15918;51.270;6.522;2022-08-21T00:08:44;6.30;;;5.53;;
28762;SDS011;15918;51.270;6.522;2022-08-21T00:11:10;9.68;;;6.47;;
28762;SDS011;15918;51.270;6.522;2022-08-21T00:13:36;11.85;;;7.10;;
28762;SDS011;15918;51.270;6.522;2022-08-21T00:16:02;7.63;;;5.97;;
28762;SDS011;15918;51.270;6.522;2022-08-21T00:18:28;7.45;;;5.80;;
28762;SDS011;15918;51.270;6.522;2022-08-21T00:20:54;7.97;;;6.07;;
28762;SDS011;15918;51.270;6.522;2022-08-21T00:23:20;7.38;;;5.80;;
28762;SDS011;15918;51.270;6.522;2022-08-21T00:25:46;8.18;;;5.72;;
28762;SDS011;15918;51.270;6.522;2022-08-21T00:28:12;9.18;;;5.97;;
28762;SDS011;15918;51.270;6.522;2022-08-21T00:30:38;8.75;;;5.70;;
28762;SDS011;15918;51.270;6.522;2022-08-21T00:33:05;7.57;;;5.63;;
28762;SDS011;15918;51.270;6.522;2022-08-21T00:35:38;8.90;;;5.97;;
28762;SDS011;15918;51.270;6.522;2022-08-21T00:38:06;6.82;;;5.20;;
28762;SDS011;15918;51.270;6.522;2022-08-21T00:40:41;7.43;;;5.88;;
28762;SDS011;15918;51.270;6.522;2022-08-21T00:43:13;7.63;;;5.63;;
28762;SDS011;15918;51.270;6.522;2022-08-21T00:45:42;8.02;;;5.68;;
28762;SDS011;15918;51.270;6.522;2022-08-21T00:48:07;9.27;;;5.93;;
28762;SDS011;15918;51.270;6.522;2022-08-21T00:50:35;6.82;;;5.82;;
28762;SDS011;15918;51.270;6.522;2022-08-21T00:53:05;11.52;;;5.82;;
28762;SDS011;15918;51.270;6.522;2022-08-21T00:55:31;7.65;;;5.45;;
28762;SDS011;15918;51.270;6.522;2022-08-21T00:57:59;6.60;;;5.50;;
28762;SDS011;15918;51.270;6.522;2022-08-21T01:00:27;7.40;;;5.43;;
28762;SDS011;15918;51.270;6.522;2022-08-21T01:02:59;6.28;;;4.97;;
28762;SDS011;15918;51.270;6.522;2022-08-21T01:05:26;8.10;;;5.90;;
28762;SDS011;15918;51.270;6.522;2022-08-21T01:07:52;9.75;;;5.45;;
28762;SDS011;15918;51.270;6.522;2022-08-21T01:10:19;7.90;;;5.80;;
28762;SDS011;15918;51.270;6.522;2022-08-21T01:12:45;6.85;;;5.50;;
28762;SDS011;15918;51.270;6.522;2022-08-21T01:15:11;10.38;;;6.28;;
28762;SDS011;15918;51.270;6.522;2022-08-21T01:17:39;6.70;;;5.15;;
28762;SDS011;15918;51.270;6.522;2022-08-21T01:20:07;6.95;;;5.28;;
28762;SDS011;15918;51.270;6.522;2022-08-21T01:22:34;6.60;;;5.18;;
28762;SDS011;15918;51.270;6.522;2022-08-21T01:25:01;8.07;;;5.10;;
28762;SDS011;15918;51.270;6.522;2022-08-21T01:27:28;7.60;;;5.05;;
28762;SDS011;15918;51.270;6.522;2022-08-21T01:29:59;6.57;;;5.00;;
28762;SDS011;15918;51.270;6.522;2022-08-21T01:32:33;7.68;;;4.90;;
28762;SDS011;15918;51.270;6.522;2022-08-21T01:34:58;8.00;;;5.22;;
28762;SDS011;15918;51.270;6.522;2022-08-21T01:37:24;7.22;;;4.80;;
28762;SDS011;15918;51.270;6.522;2022-08-21T01:39:50;7.50;;;5.30;;
28762;SDS011;15918;51.270;6.522;2022-08-21T01:42:16;6.55;;;5.05;;
28762;SDS011;15918;51.270;6.522;2022-08-21T01:44:42;8.38;;;5.45;;
28762;SDS011;15918;51.270;6.522;2022-08-21T01:47:09;7.30;;;5.03;;
28762;SDS011;15918;51.270;6.522;2022-08-21T01:49:37;5.85;;;4.82;;
28762;SDS011;15918;51.270;6.522;2022-08-21T01:52:04;7.90;;;6.07;;
28762;SDS011;15918;51.270;6.522;2022-08-21T01:54:30;10.50;;;5.18;;
28762;SDS011;15918;51.270;6.522;2022-08-21T01:56:56;9.63;;;5.80;;
28762;SDS011;15918;51.270;6.522;2022-08-21T01:59:24;6.72;;;5.15;;
28762;SDS011;15918;51.270;6.522;2022-08-21T02:01:50;6.97;;;5.15;;
28762;SDS011;15918;51.270;6.522;2022-08-21T02:04:18;7.65;;;4.90;;
28762;SDS011;15918;51.270;6.522;2022-08-21T02:06:44;8.30;;;5.88;;
28762;SDS011;15918;51.270;6.522;2022-08-21T02:09:10;8.15;;;5.40;;
28762;SDS011;15918;51.270;6.522;2022-08-21T02:11:37;6.82;;;5.32;;
28762;SDS011;15918;51.270;6.522;2022-08-21T02:14:09;7.43;;;4.80;;
28762;SDS011;15918;51.270;6.522;2022-08-21T02:16:37;9.32;;;5.63;;
28762;SDS011;15918;51.270;6.522;2022-08-21T02:19:03;13.05;;;5.35;;
28762;SDS011;15918;51.270;6.522;2022-08-21T02:21:29;7.63;;;5.85;;
28762;SDS011;15918;51.270;6.522;2022-08-21T02:23:55;8.30;;;4.78;;
28762;SDS011;15918;51.270;6.522;2022-08-21T02:26:20;10.25;;;5.53;;
28762;SDS011;15918;51.270;6.522;2022-08-21T02:28:46;10.15;;;6.45;;
28762;SDS011;15918;51.270;6.522;2022-08-21T02:31:12;7.80;;;5.50;;
28762;SDS011;15918;51.270;6.522;2022-08-21T02:33:38;9.43;;;5.75;;
28762;SDS011;15918;51.270;6.522;2022-08-21T02:36:04;9.52;;;5.55;;
28762;SDS011;15918;51.270;6.522;2022-08-21T02:38:31;6.07;;;5.43;;
28762;SDS011;15918;51.270;6.522;2022-08-21T02:41:00;9.68;;;5.22;;
28762;SDS011;15918;51.270;6.522;2022-08-21T02:43:26;9.80;;;6.28;;
28762;SDS011;15918;51.270;6.522;2022-08-21T02:45:54;7.50;;;5.13;;
28762;SDS011;15918;51.270;6.522;2022-08-21T02:48:21;6.75;;;5.30;;
28762;SDS011;15918;51.270;6.522;2022-08-21T02:50:52;7.25;;;5.22;;
28762;SDS011;15918;51.270;6.522;2022-08-21T02:53:22;6.65;;;5.22;;
28762;SDS011;15918;51.270;6.522;2022-08-21T02:55:48;8.20;;;5.78;;
28762;SDS011;15918;51.270;6.522;2022-08-21T02:58:16;8.13;;;5.35;;
28762;SDS011;15918;51.270;6.522;2022-08-21T03:00:44;6.97;;;5.05;;
28762;SDS011;15918;51.270;6.522;2022-08-21T03:03:11;5.90;;;5.30;;
28762;SDS011;15918;51.270;6.522;2022-08-21T03:05:38;7.28;;;5.32;;
28762;SDS011;15918;51.270;6.522;2022-08-21T03:08:04;8.30;;;5.72;;
28762;SDS011;15918;51.270;6.522;2022-08-21T03:10:34;6.20;;;5.35;;
28762;SDS011;15918;51.270;6.522;2022-08-21T03:13:00;7.32;;;5.78;;
28762;SDS011;15918;51.270;6.522;2022-08-21T03:15:28;8.95;;;5.78;;
28762;SDS011;15918;51.270;6.522;2022-08-21T03:17:54;9.15;;;6.20;;
28762;SDS011;15918;51.270;6.522;2022-08-21T03:20:20;8.18;;;5.50;;
28762;SDS011;15918;51.270;6.522;2022-08-21T03:22:49;6.95;;;5.20;;
28762;SDS011;15918;51.270;6.522;2022-08-21T03:25:15;9.40;;;6.07;;
28762;SDS011;15918;51.270;6.522;2022-08-21T03:27:42;6.80;;;5.63;;
28762;SDS011;15918;51.270;6.522;2022-08-21T03:30:09;10.65;;;6.28;;
28762;SDS011;15918;51.270;6.522;2022-08-21T03:32:35;9.43;;;6.07;;
28762;SDS011;15918;51.270;6.522;2022-08-21T03:35:02;8.40;;;5.63;;
28762;SDS011;15918;51.270;6.522;2022-08-21T03:37:29;10.07;;;6.30;;
28762;SDS011;15918;51.270;6.522;2022-08-21T03:39:55;9.05;;;6.10;;
28762;SDS011;15918;51.270;6.522;2022-08-21T03:42:20;7.13;;;6.05;;
28762;SDS011;15918;51.270;6.522;2022-08-21T03:44:46;8.38;;;6.63;;
28762;SDS011;15918;51.270;6.522;2022-08-21T03:47:12;7.25;;;6.47;;
28762;SDS011;15918;51.270;6.522;2022-08-21T03:49:38;8.60;;;6.10;;
28762;SDS011;15918;51.270;6.522;2022-08-21T03:52:04;8.30;;;6.40;;
28762;SDS011;15918;51.270;6.522;2022-08-21T03:54:30;7.63;;;6.47;;
28762;SDS011;15918;51.270;6.522;2022-08-21T03:56:56;9.48;;;6.00;;
28762;SDS011;15918;51.270;6.522;2022-08-21T03:59:22;9.25;;;6.78;;
28762;SDS011;15918;51.270;6.522;2022-08-21T04:01:55;9.13;;;6.57;;
28762;SDS011;15918;51.270;6.522;2022-08-21T04:04:23;9.10;;;5.90;;
28762;SDS011;15918;51.270;6.522;2022-08-21T04:06:49;7.15;;;6.22;;
28762;SDS011;15918;51.270;6.522;2022-08-21T04:09:15;8.77;;;6.00;;
28762;SDS011;15918;51.270;6.522;2022-08-21T04:11:41;10.63;;;6.97;;
28762;SDS011;15918;51.270;6.522;2022-08-21T04:14:07;11.52;;;6.95;;
28762;SDS011;15918;51.270;6.522;2022-08-21T04:16:33;8.25;;;6.20;;
28762;SDS011;15918;51.270;6.522;2022-08-21T04:18:58;8.88;;;6.05;;
28762;SDS011;15918;51.270;6.522;2022-08-21T04:21:24;7.32;;;6.22;;
28762;SDS011;15918;51.270;6.522;2022-08-21T04:23:50;6.95;;;6.05;;
28762;SDS011;15918;51.270;6.522;2022-08-21T04:26:16;7.97;;;6.28;;
28762;SDS011;15918;51.270;6.522;2022-08-21T04:28:42;7.47;;;6.65;;
28762;SDS011;15918;51.270;6.522;2022-08-21T04:31:08;10.27;;;6.80;;
28762;SDS011;15918;51.270;6.522;2022-08-21T04:33:34;9.23;;;7.35;;
28762;SDS011;15918;51.270;6.522;2022-08-21T04:36:00;10.13;;;7.30;;
28762;SDS011;15918;51.270;6.522;2022-08-21T04:38:26;8.82;;;6.28;;
28762;SDS011;15918;51.270;6.522;2022-08-21T04:40:52;8.45;;;6.75;;
28762;SDS011;15918;51.270;6.522;2022-08-21T04:43:18;10.52;;;7.18;;
28762;SDS011;15918;51.270;6.522;2022-08-21T04:45:47;10.07;;;6.68;;
28762;SDS011;15918;51.270;6.522;2022-08-21T04:48:14;9.88;;;6.57;;
28762;SDS011;15918;51.270;6.522;2022-08-21T04:50:42;11.30;;;7.05;;
28762;SDS011;15918;51.270;6.522;2022-08-21T04:53:35;7.38;;;6.68;;
28762;SDS011;15918;51.270;6.522;2022-08-21T04:56:08;10.35;;;6.68;;
28762;SDS011;15918;51.270;6.522;2022-08-21T04:58:37;9.65;;;7.07;;
28762;SDS011;15918;51.270;6.522;2022-08-21T05:01:04;8.65;;;6.72;;
28762;SDS011;15918;51.270;6.522;2022-08-21T05:03:33;12.05;;;6.75;;
28762;SDS011;15918;51.270;6.522;2022-08-21T05:06:04;10.65;;;6.28;;
28762;SDS011;15918;51.270;6.522;2022-08-21T05:08:31;7.60;;;6.20;;
28762;SDS011;15918;51.270;6.522;2022-08-21T05:10:58;11.82;;;6.60;;
28762;SDS011;15918;51.270;6.522;2022-08-21T05:13:24;7.32;;;5.90;;
28762;SDS011;15918;51.270;6.522;2022-08-21T05:15:50;11.73;;;5.93;;
28762;SDS011;15918;51.270;6.522;2022-08-21T05:18:15;6.47;;;5.32;;
28762;SDS011;15918;51.270;6.522;2022-08-21T05:20:41;7.43;;;5.22;;
28762;SDS011;15918;51.270;6.522;2022-08-21T05:23:10;9.55;;;5.80;;
28762;SDS011;15918;51.270;6.522;2022-08-21T05:25:37;7.93;;;5.05;;
28762;SDS011;15918;51.270;6.522;2022-08-21T05:28:03;7.82;;;5.15;;
28762;SDS011;15918;51.270;6.522;2022-08-21T05:30:30;7.47;;;4.60;;
28762;SDS011;15918;51.270;6.522;2022-08-21T05:33:00;7.28;;;4.47;;
28762;SDS011;15918;51.270;6.522;2022-08-21T05:35:27;7.32;;;4.65;;
28762;SDS011;15918;51.270;6.522;2022-08-21T05:37:54;8.57;;;5.03;;
28762;SDS011;15918;51.270;6.522;2022-08-21T05:40:21;9.77;;;4.50;;
28762;SDS011;15918;51.270;6.522;2022-08-21T05:42:47;12.25;;;4.60;;
28762;SDS011;15918;51.270;6.522;2022-08-21T05:45:13;7.28;;;4.82;;
28762;SDS011;15918;51.270;6.522;2022-08-21T05:47:39;12.00;;;4.55;;
28762;SDS011;15918;51.270;6.522;2022-08-21T05:50:05;7.55;;;4.40;;
28762;SDS011;15918;51.270;6.522;2022-08-21T05:52:31;8.35;;;4.50;;
28762;SDS011;15918;51.270;6.522;2022-08-21T05:54:56;9.38;;;4.38;;
28762;SDS011;15918;51.270;6.522;2022-08-21T05:57:22;9.80;;;4.70;;
28762;SDS011;15918;51.270;6.522;2022-08-21T05:59:48;10.75;;;4.50;;
28762;SDS011;15918;51.270;6.522;2022-08-21T06:02:16;9.32;;;4.13;;
28762;SDS011;15918;51.270;6.522;2022-08-21T06:04:43;5.70;;;3.88;;
28762;SDS011;15918;51.270;6.522;2022-08-21T06:07:09;14.70;;;4.57;;
28762;SDS011;15918;51.270;6.522;2022-08-21T06:09:34;10.70;;;4.32;;
28762;SDS011;15918;51.270;6.522;2022-08-21T06:12:04;7.35;;;3.67;;
28762;SDS011;15918;51.270;6.522;2022-08-21T06:14:31;10.05;;;4.50;;
28762;SDS011;15918;51.270;6.522;2022-08-21T06:17:04;13.27;;;5.35;;
28762;SDS011;15918;51.270;6.522;2022-08-21T06:19:34;7.90;;;3.60;;
28762;SDS011;15918;51.270;6.522;2022-08-21T06:22:00;6.88;;;3.17;;
28762;SDS011;15918;51.270;6.522;2022-08-21T06:24:25;10.63;;;4.32;;
28762;SDS011;15918;51.270;6.522;2022-08-21T06:26:51;7.00;;;3.92;;
28762;SDS011;15918;51.270;6.522;2022-08-21T06:29:18;11.18;;;4.43;;
28762;SDS011;15918;51.270;6.522;2022-08-21T06:31:45;10.90;;;3.97;;
28762;SDS011;15918;51.270;6.522;2022-08-21T06:34:12;9.05;;;4.10;;
28762;SDS011;15918;51.270;6.522;2022-08-21T06:36:38;9.18;;;3.72;;
28762;SDS011;15918;51.270;6.522;2022-08-21T06:39:03;6.63;;;3.28;;
28762;SDS011;15918;51.270;6.522;2022-08-21T06:41:29;8.88;;;4.47;;
28762;SDS011;15918;51.270;6.522;2022-08-21T06:43:55;10.68;;;3.55;;
28762;SDS011;15918;51.270;6.522;2022-08-21T06:46:22;9.30;;;3.80;;
28762;SDS011;15918;51.270;6.522;2022-08-21T06:48:49;9.25;;;3.83;;
28762;SDS011;15918;51.270;6.522;2022-08-21T06:51:15;6.15;;;2.92;;
28762;SDS011;15918;51.270;6.522;2022-08-21T06:53:40;15.43;;;4.07;;
28762;SDS011;15918;51.270;6.522;2022-08-21T06:56:06;11.88;;;4.05;;
28762;SDS011;15918;51.270;6.522;2022-08-21T06:58:32;6.60;;;3.70;;
28762;SDS011;15918;51.270;6.522;2022-08-21T07:00:57;8.30;;;3.83;;
28762;SDS011;15918;51.270;6.522;2022-08-21T07:03:24;8.27;;;3.40;;
28762;SDS011;15918;51.270;6.522;2022-08-21T07:05:55;10.82;;;3.58;;
28762;SDS011;15918;51.270;6.522;2022-08-21T07:08:23;8.07;;;3.70;;
28762;SDS011;15918;51.270;6.522;2022-08-21T07:10:49;8.38;;;3.25;;
28762;SDS011;15918;51.270;6.522;2022-08-21T07:13:18;10.02;;;3.40;;
28762;SDS011;15918;51.270;6.522;2022-08-21T07:15:44;12.80;;;3.38;;
28762;SDS011;15918;51.270;6.522;2022-08-21T07:18:10;6.93;;;3.15;;
28762;SDS011;15918;51.270;6.522;2022-08-21T07:20:37;7.30;;;2.60;;
28762;SDS011;15918;51.270;6.522;2022-08-21T07:23:05;9.80;;;2.90;;
28762;SDS011;15918;51.270;6.522;2022-08-21T07:25:34;6.00;;;2.75;;
28762;SDS011;15918;51.270;6.522;2022-08-21T07:28:00;5.88;;;2.90;;
28762;SDS011;15918;51.270;6.522;2022-08-21T07:30:26;8.55;;;3.08;;
28762;SDS011;15918;51.270;6.522;2022-08-21T07:32:52;11.55;;;3.40;;
28762;SDS011;15918;51.270;6.522;2022-08-21T07:35:20;8.63;;;3.13;;
28762;SDS011;15918;51.270;6.522;2022-08-21T07:37:46;8.30;;;2.95;;
28762;SDS011;15918;51.270;6.522;2022-08-21T07:40:12;9.00;;;2.60;;
28762;SDS011;15918;51.270;6.522;2022-08-21T07:42:40;8.13;;;2.80;;
28762;SDS011;15918;51.270;6.522;2022-08-21T07:45:06;11.45;;;2.92;;
28762;SDS011;15918;51.270;6.522;2022-08-21T07:47:33;10.10;;;3.22;;
28762;SDS011;15918;51.270;6.522;2022-08-21T07:49:58;6.15;;;2.90;;
28762;SDS011;15918;51.270;6.522;2022-08-21T07:52:24;8.73;;;2.88;;
28762;SDS011;15918;51.270;6.522;2022-08-21T07:54:49;8.30;;;2.63;;
28762;SDS011;15918;51.270;6.522;2022-08-21T07:57:15;7.88;;;2.10;;
28762;SDS011;15918;51.270;6.522;2022-08-21T07:59:41;8.07;;;2.33;;
28762;SDS011;15918;51.270;6.522;2022-08-21T08:02:07;8.88;;;2.45;;
28762;SDS011;15918;51.270;6.522;2022-08-21T08:04:32;7.88;;;2.40;;
28762;SDS011;15918;51.270;6.522;2022-08-21T08:06:58;7.00;;;2.40;;
28762;SDS011;15918;51.270;6.522;2022-08-21T08:09:24;8.27;;;2.53;;
28762;SDS011;15918;51.270;6.522;2022-08-21T08:11:49;5.40;;;2.20;;
28762;SDS011;15918;51.270;6.522;2022-08-21T08:14:15;5.32;;;2.40;;
28762;SDS011;15918;51.270;6.522;2022-08-21T08:16:40;6.55;;;2.28;;
28762;SDS011;15918;51.270;6.522;2022-08-21T08:19:06;9.27;;;2.45;;
28762;SDS011;15918;51.270;6.522;2022-08-21T08:21:32;8.05;;;2.10;;
28762;SDS011;15918;51.270;6.522;2022-08-21T08:23:58;5.18;;;2.22;;
28762;SDS011;15918;51.270;6.522;2022-08-21T08:26:24;6.03;;;2.17;;
28762;SDS011;15918;51.270;6.522;2022-08-21T08:28:50;6.03;;;2.08;;
28762;SDS011;15918;51.270;6.522;2022-08-21T08:31:15;5.85;;;2.30;;
28762;SDS011;15918;51.270;6.522;2022-08-21T08:33:41;6.15;;;2.10;;
28762;SDS011;15918;51.270;6.522;2022-08-21T08:36:12;5.70;;;2.10;;
28762;SDS011;15918;51.270;6.522;2022-08-21T08:38:38;7.30;;;2.45;;
28762;SDS011;15918;51.270;6.522;2022-08-21T08:46:10;6.25;;;2.20;;
28762;SDS011;15918;51.270;6.522;2022-08-21T08:48:51;6.53;;;2.35;;
28762;SDS011;15918;51.270;6.522;2022-08-21T08:51:28;5.55;;;2.28;;
28762;SDS011;15918;51.270;6.522;2022-08-21T08:54:03;7.97;;;1.98;;
28762;SDS011;15918;51.270;6.522;2022-08-21T08:56:33;5.95;;;1.95;;
28762;SDS011;15918;51.270;6.522;2022-08-21T08:59:02;6.45;;;1.98;;
28762;SDS011;15918;51.270;6.522;2022-08-21T09:01:33;7.75;;;2.55;;
28762;SDS011;15918;51.270;6.522;2022-08-21T09:03:59;6.72;;;2.47;;
28762;SDS011;15918;51.270;6.522;2022-08-21T09:06:33;5.22;;;2.10;;
28762;SDS011;15918;51.270;6.522;2022-08-21T09:12:53;7.55;;;2.33;;
28762;SDS011;15918;51.270;6.522;2022-08-21T09:15:33;4.28;;;1.63;;
28762;SDS011;15918;51.270;6.522;2022-08-21T09:21:18;3.53;;;1.50;;
28762;SDS011;15918;51.270;6.522;2022-08-21T09:29:46;6.53;;;2.00;;
28762;SDS011;15918;51.270;6.522;2022-08-21T09:32:20;3.17;;;1.50;;
28762;SDS011;15918;51.270;6.522;2022-08-21T09:34:57;4.53;;;1.67;;
28762;SDS011;15918;51.270;6.522;2022-08-21T09:37:33;6.40;;;1.88;;
28762;SDS011;15918;51.270;6.522;2022-08-21T09:40:44;5.97;;;2.22;;
28762;SDS011;15918;51.270;6.522;2022-08-21T09:43:04;7.38;;;1.98;;
28762;SDS011;15918;51.270;6.522;2022-08-21T09:45:42;3.58;;;1.55;;
28762;SDS011;15918;51.270;6.522;2022-08-21T09:48:22;4.10;;;1.80;;
28762;SDS011;15918;51.270;6.522;2022-08-21T09:50:50;5.18;;;1.90;;
28762;SDS011;15918;51.270;6.522;2022-08-21T09:53:27;5.07;;;2.03;;
28762;SDS011;15918;51.270;6.522;2022-08-21T09:56:05;5.70;;;1.88;;
28762;SDS011;15918;51.270;6.522;2022-08-21T09:59:12;6.65;;;2.13;;
28762;SDS011;15918;51.270;6.522;2022-08-21T10:04:10;5.95;;;2.22;;
28762;SDS011;15918;51.270;6.522;2022-08-21T10:06:39;6.05;;;2.38;;
28762;SDS011;15918;51.270;6.522;2022-08-21T10:09:14;7.07;;;2.20;;
28762;SDS011;15918;51.270;6.522;2022-08-21T10:11:49;7.57;;;2.17;;
28762;SDS011;15918;51.270;6.522;2022-08-21T10:20:09;4.90;;;2.28;;
28762;SDS011;15918;51.270;6.522;2022-08-21T10:23:01;4.05;;;2.00;;
28762;SDS011;15918;51.270;6.522;2022-08-21T10:25:44;6.30;;;1.67;;
28762;SDS011;15918;51.270;6.522;2022-08-21T10:28:19;4.60;;;1.98;;
28762;SDS011;15918;51.270;6.522;2022-08-21T10:31:12;5.95;;;1.90;;
28762;SDS011;15918;51.270;6.522;2022-08-21T10:36:33;4.50;;;1.92;;
28762;SDS011;15918;51.270;6.522;2022-08-21T10:39:15;6.32;;;1.70;;
28762;SDS011;15918;51.270;6.522;2022-08-21T10:42:01;6.00;;;1.60;;
28762;SDS011;15918;51.270;6.522;2022-08-21T10:55:36;3.00;;;1.58;;
28762;SDS011;15918;51.270;6.522;2022-08-21T10:58:12;3.78;;;1.50;;
28762;SDS011;15918;51.270;6.522;2022-08-21T11:06:42;5.20;;;1.60;;
28762;SDS011;15918;51.270;6.522;2022-08-21T11:08:55;4.13;;;1.80;;
28762;SDS011;15918;51.270;6.522;2022-08-21T11:11:29;3.85;;;1.40;;
28762;SDS011;15918;51.270;6.522;2022-08-21T11:14:03;4.90;;;1.95;;
28762;SDS011;15918;51.270;6.522;2022-08-21T11:21:54;3.83;;;1.40;;
28762;SDS011;15918;51.270;6.522;2022-08-21T11:29:55;5.88;;;1.92;;
28762;SDS011;15918;51.270;6.522;2022-08-21T11:40:44;4.63;;;1.60;;
28762;SDS011;15918;51.270;6.522;2022-08-21T11:43:14;5.80;;;2.17;;
28762;SDS011;15918;51.270;6.522;2022-08-21T11:45:51;4.88;;;2.38;;
28762;SDS011;15918;51.270;6.522;2022-08-21T11:48:34;4.13;;;1.90;;
28762;SDS011;15918;51.270;6.522;2022-08-21T11:51:05;4.18;;;1.83;;
28762;SDS011;15918;51.270;6.522;2022-08-21T11:56:12;4.20;;;2.03;;
28762;SDS011;15918;51.270;6.522;2022-08-21T11:58:48;4.40;;;1.90;;
28762;SDS011;15918;51.270;6.522;2022-08-21T12:01:22;5.85;;;1.80;;
28762;SDS011;15918;51.270;6.522;2022-08-21T12:03:56;4.13;;;1.60;;
28762;SDS011;15918;51.270;6.522;2022-08-21T12:06:34;2.70;;;1.67;;
28762;SDS011;15918;51.270;6.522;2022-08-21T12:09:06;3.90;;;2.10;;
28762;SDS011;15918;51.270;6.522;2022-08-21T12:11:45;4.50;;;1.80;;
28762;SDS011;15918;51.270;6.522;2022-08-21T12:14:14;5.35;;;1.80;;
28762;SDS011;15918;51.270;6.522;2022-08-21T12:16:42;3.67;;;1.85;;
28762;SDS011;15918;51.270;6.522;2022-08-21T12:21:51;3.60;;;1.60;;
28762;SDS011;15918;51.270;6.522;2022-08-21T12:27:23;2.90;;;1.15;;
28762;SDS011;15918;51.270;6.522;2022-08-21T12:30:05;3.88;;;1.63;;
28762;SDS011;15918;51.270;6.522;2022-08-21T12:32:45;6.03;;;1.60;;
28762;SDS011;15918;51.270;6.522;2022-08-21T12:35:21;4.72;;;1.70;;
28762;SDS011;15918;51.270;6.522;2022-08-21T12:38:01;5.30;;;2.28;;
28762;SDS011;15918;51.270;6.522;2022-08-21T12:40:37;3.95;;;1.60;;
28762;SDS011;15918;51.270;6.522;2022-08-21T12:43:05;2.92;;;1.35;;
28762;SDS011;15918;51.270;6.522;2022-08-21T12:45:43;3.70;;;1.65;;
28762;SDS011;15918;51.270;6.522;2022-08-21T12:48:20;3.90;;;1.67;;
28762;SDS011;15918;51.270;6.522;2022-08-21T12:50:55;4.68;;;1.95;;
28762;SDS011;15918;51.270;6.522;2022-08-21T12:53:28;4.25;;;1.63;;
28762;SDS011;15918;51.270;6.522;2022-08-21T12:56:08;5.35;;;2.60;;
28762;SDS011;15918;51.270;6.522;2022-08-21T13:01:33;8.40;;;1.67;;
28762;SDS011;15918;51.270;6.522;2022-08-21T13:04:04;6.13;;;1.80;;
28762;SDS011;15918;51.270;6.522;2022-08-21T13:06:38;5.30;;;1.63;;
28762;SDS011;15918;51.270;6.522;2022-08-21T13:09:14;6.65;;;1.80;;
28762;SDS011;15918;51.270;6.522;2022-08-21T13:11:43;4.72;;;1.67;;
28762;SDS011;15918;51.270;6.522;2022-08-21T13:14:24;6.78;;;1.98;;
28762;SDS011;15918;51.270;6.522;2022-08-21T13:16:58;3.25;;;1.63;;
28762;SDS011;15918;51.270;6.522;2022-08-21T13:19:26;5.15;;;1.88;;
28762;SDS011;15918;51.270;6.522;2022-08-21T13:21:52;3.42;;;1.42;;
28762;SDS011;15918;51.270;6.522;2022-08-21T13:26:52;3.80;;;1.38;;
28762;SDS011;15918;51.270;6.522;2022-08-21T13:29:20;4.50;;;1.77;;
28762;SDS011;15918;51.270;6.522;2022-08-21T13:31:55;3.42;;;1.73;;
28762;SDS011;15918;51.270;6.522;2022-08-21T13:34:26;4.90;;;1.95;;
28762;SDS011;15918;51.270;6.522;2022-08-21T13:37:02;3.08;;;1.65;;
28762;SDS011;15918;51.270;6.522;2022-08-21T13:39:30;7.23;;;2.07;;
28762;SDS011;15918;51.270;6.522;2022-08-21T13:41:58;3.92;;;1.52;;
28762;SDS011;15918;51.270;6.522;2022-08-21T13:44:35;2.72;;;1.40;;
28762;SDS011;15918;51.270;6.522;2022-08-21T13:47:05;4.38;;;2.10;;
28762;SDS011;15918;51.270;6.522;2022-08-21T13:49:35;4.57;;;2.05;;
28762;SDS011;15918;51.270;6.522;2022-08-21T13:52:04;3.83;;;1.90;;
28762;SDS011;15918;51.270;6.522;2022-08-21T13:55:08;4.85;;;1.92;;
28762;SDS011;15918;51.270;6.522;2022-08-21T13:57:37;2.80;;;1.67;;
28762;SDS011;15918;51.270;6.522;2022-08-21T14:00:14;6.20;;;1.95;;
28762;SDS011;15918;51.270;6.522;2022-08-21T14:02:41;5.00;;;1.70;;
28762;SDS011;15918;51.270;6.522;2022-08-21T14:05:43;4.15;;;1.95;;
28762;SDS011;15918;51.270;6.522;2022-08-21T14:10:57;5.78;;;1.80;;
28762;SDS011;15918;51.270;6.522;2022-08-21T14:15:59;4.95;;;1.60;;
28762;SDS011;15918;51.270;6.522;2022-08-21T14:18:26;5.03;;;1.55;;
28762;SDS011;15918;51.270;6.522;2022-08-21T14:21:03;3.67;;;1.80;;
28762;SDS011;15918;51.270;6.522;2022-08-21T14:23:32;3.10;;;1.70;;
28762;SDS011;15918;51.270;6.522;2022-08-21T14:25:59;7.88;;;2.13;;
28762;SDS011;15918;51.270;6.522;2022-08-21T14:28:29;4.32;;;2.03;;
28762;SDS011;15918;51.270;6.522;2022-08-21T14:30:57;4.90;;;1.98;;
28762;SDS011;15918;51.270;6.522;2022-08-21T14:33:31;4.90;;;1.40;;
28762;SDS011;15918;51.270;6.522;2022-08-21T14:35:57;4.93;;;1.67;;
28762;SDS011;15918;51.270;6.522;2022-08-21T14:38:25;2.53;;;1.50;;
28762;SDS011;15918;51.270;6.522;2022-08-21T14:40:53;4.88;;;2.10;;
28762;SDS011;15918;51.270;6.522;2022-08-21T14:43:21;4.45;;;1.50;;
28762;SDS011;15918;51.270;6.522;2022-08-21T14:45:48;5.75;;;1.92;;
28762;SDS011;15918;51.270;6.522;2022-08-21T14:48:14;4.97;;;1.85;;
28762;SDS011;15918;51.270;6.522;2022-08-21T14:50:39;3.97;;;2.08;;
28762;SDS011;15918;51.270;6.522;2022-08-21T14:53:06;4.47;;;1.95;;
28762;SDS011;15918;51.270;6.522;2022-08-21T14:55:32;3.58;;;1.70;;
28762;SDS011;15918;51.270;6.522;2022-08-21T14:58:21;3.97;;;1.35;;
28762;SDS011;15918;51.270;6.522;2022-08-21T15:00:49;6.30;;;2.05;;
28762;SDS011;15918;51.270;6.522;2022-08-21T15:03:17;2.92;;;1.50;;
28762;SDS011;15918;51.270;6.522;2022-08-21T15:05:43;5.10;;;1.80;;
28762;SDS011;15918;51.270;6.522;2022-08-21T15:08:09;3.70;;;1.63;;
28762;SDS011;15918;51.270;6.522;2022-08-21T15:10:35;3.30;;;1.70;;
28762;SDS011;15918;51.270;6.522;2022-08-21T15:13:01;6.28;;;1.70;;
28762;SDS011;15918;51.270;6.522;2022-08-21T15:15:29;4.63;;;1.80;;
28762;SDS011;15918;51.270;6.522;2022-08-21T15:17:57;4.70;;;1.90;;
28762;SDS011;15918;51.270;6.522;2022-08-21T15:20:22;4.18;;;1.77;;
28762;SDS011;15918;51.270;6.522;2022-08-21T15:22:48;6.07;;;1.80;;
28762;SDS011;15918;51.270;6.522;2022-08-21T15:25:13;3.72;;;1.80;;
28762;SDS011;15918;51.270;6.522;2022-08-21T15:27:39;4.55;;;1.80;;
28762;SDS011;15918;51.270;6.522;2022-08-21T15:30:05;4.97;;;1.55;;
28762;SDS011;15918;51.270;6.522;2022-08-21T15:32:31;2.67;;;1.80;;
28762;SDS011;15918;51.270;6.522;2022-08-21T15:34:57;3.75;;;1.90;;
28762;SDS011;15918;51.270;6.522;2022-08-21T15:37:24;7.43;;;2.28;;
28762;SDS011;15918;51.270;6.522;2022-08-21T15:39:50;4.55;;;1.63;;
28762;SDS011;15918;51.270;6.522;2022-08-21T15:42:17;5.57;;;1.95;;
28762;SDS011;15918;51.270;6.522;2022-08-21T15:44:43;4.10;;;1.55;;
28762;SDS011;15918;51.270;6.522;2022-08-21T15:47:11;3.80;;;1.70;;
28762;SDS011;15918;51.270;6.522;2022-08-21T15:49:40;5.10;;;1.95;;
28762;SDS011;15918;51.270;6.522;2022-08-21T15:52:09;7.43;;;2.58;;
28762;SDS011;15918;51.270;6.522;2022-08-21T15:54:36;3.83;;;2.10;;
28762;SDS011;15918;51.270;6.522;2022-08-21T15:57:02;5.30;;;2.33;;
28762;SDS011;15918;51.270;6.522;2022-08-21T15:59:27;6.30;;;2.20;;
28762;SDS011;15918;51.270;6.522;2022-08-21T16:02:04;5.95;;;2.00;;
28762;SDS011;15918;51.270;6.522;2022-08-21T16:04:32;5.35;;;2.00;;
28762;SDS011;15918;51.270;6.522;2022-08-21T16:06:57;6.13;;;2.28;;
28762;SDS011;15918;51.270;6.522;2022-08-21T16:09:23;3.10;;;2.00;;
28762;SDS011;15918;51.270;6.522;2022-08-21T16:11:49;4.97;;;2.05;;
28762;SDS011;15918;51.270;6.522;2022-08-21T16:14:15;6.60;;;1.85;;
28762;SDS011;15918;51.270;6.522;2022-08-21T16:16:42;6.38;;;2.25;;
28762;SDS011;15918;51.270;6.522;2022-08-21T16:19:08;3.50;;;1.98;;
28762;SDS011;15918;51.270;6.522;2022-08-21T16:21:35;3.05;;;1.58;;